createdAt,value
2018-03-25T00:00:52.059Z,0.89
2018-03-25T00:02:02.021Z,0.84
2018-03-25T00:03:11.479Z,0.84
2018-03-25T00:04:20.660Z,0.81
2018-03-25T00:05:30.366Z,0.86
2018-03-25T00:06:40.332Z,0.81
2018-03-25T00:07:49.777Z,0.78
2018-03-25T00:08:59.751Z,0.86
2018-03-25T00:10:09.468Z,0.86
2018-03-25T00:11:19.436Z,0.88
2018-03-25T00:12:29.411Z,0.95
2018-03-25T00:13:39.382Z,0.86
2018-03-25T00:14:48.822Z,1
2018-03-25T00:15:58.547Z,0.94
2018-03-25T00:17:07.997Z,0.86
2018-03-25T00:18:17.976Z,0.88
2018-03-25T00:19:27.973Z,0.77
2018-03-25T00:20:37.942Z,0.86
2018-03-25T00:21:47.664Z,0.82
2018-03-25T00:22:57.354Z,0.82
2018-03-25T00:24:07.307Z,0.81
2018-03-25T00:25:17.012Z,0.73
2018-03-25T00:26:26.982Z,0.76
2018-03-25T00:27:36.490Z,0.68
2018-03-25T00:28:46.234Z,0.73
2018-03-25T00:29:55.943Z,0.7
2018-03-25T00:31:05.913Z,0.73
2018-03-25T00:32:15.364Z,0.66
2018-03-25T00:33:24.870Z,0.67
2018-03-25T00:34:34.836Z,0.66
2018-03-25T00:35:44.546Z,0.64
2018-03-25T00:36:54.504Z,0.58
2018-03-25T00:38:04.469Z,0.51
2018-03-25T00:39:14.445Z,0.58
2018-03-25T00:40:24.149Z,0.48
2018-03-25T00:41:33.597Z,0.37
2018-03-25T00:42:43.549Z,0.36
2018-03-25T00:43:53.255Z,0.29
2018-03-25T00:45:03.208Z,0.27
2018-03-25T00:46:13.179Z,0.16
2018-03-25T00:47:23.146Z,0.26
2018-03-25T00:48:33.110Z,0.27
2018-03-25T00:49:42.815Z,0.19
2018-03-25T00:50:52.513Z,0.19
2018-03-25T00:52:02.216Z,0.2
2018-03-25T00:53:12.190Z,0.26
2018-03-25T00:54:22.171Z,0.19
2018-03-25T00:55:32.151Z,0.24
2018-03-25T00:56:42.125Z,0.18
2018-03-25T00:57:52.100Z,0.3
2018-03-25T00:59:02.072Z,0.3
2018-03-25T01:00:11.794Z,0.3
2018-03-25T01:01:21.230Z,0.37
2018-03-25T01:02:30.923Z,0.39
2018-03-25T01:03:40.875Z,0.47
2018-03-25T01:04:50.609Z,0.47
2018-03-25T01:06:00.056Z,0.51
2018-03-25T01:07:10.030Z,0.47
2018-03-25T01:08:19.721Z,0.4
2018-03-25T01:09:29.678Z,0.4
2018-03-25T01:10:39.434Z,0.34
2018-03-25T01:11:49.143Z,0.37
2018-03-25T01:12:59.097Z,0.36
2018-03-25T01:14:08.800Z,0.33
2018-03-25T01:15:18.763Z,0.31
2018-03-25T01:16:28.449Z,0.2
2018-03-25T01:17:38.394Z,0.26
2018-03-25T01:18:47.832Z,0.24
2018-03-25T01:19:57.797Z,0.19
2018-03-25T01:21:07.504Z,0.26
2018-03-25T01:22:17.496Z,0.2
2018-03-25T01:23:27.456Z,0.16
2018-03-25T01:24:37.158Z,0.2
2018-03-25T01:25:47.166Z,0.18
2018-03-25T01:26:57.131Z,0.19
2018-03-25T01:28:06.852Z,0.19
2018-03-25T01:29:16.819Z,0.19
2018-03-25T01:30:26.257Z,0.26
2018-03-25T01:31:36.228Z,0.29
2018-03-25T01:32:46.203Z,0.31
2018-03-25T01:33:56.162Z,0.34
2018-03-25T01:35:05.611Z,0.36
2018-03-25T01:36:15.353Z,0.4
2018-03-25T01:37:25.090Z,0.48
2018-03-25T01:38:35.048Z,0.39
2018-03-25T01:39:45.006Z,0.51
2018-03-25T01:40:54.720Z,0.48
2018-03-25T01:42:04.420Z,0.48
2018-03-25T01:43:14.399Z,0.44
2018-03-25T01:44:24.358Z,0.39
2018-03-25T01:45:34.073Z,0.36
2018-03-25T01:46:44.021Z,0.34
2018-03-25T01:47:53.985Z,0.24
2018-03-25T01:49:03.691Z,0.24
2018-03-25T01:50:13.386Z,0.16
2018-03-25T01:51:23.097Z,0.23
2018-03-25T01:52:32.799Z,0.19
2018-03-25T01:53:42.492Z,0.13
2018-03-25T01:54:52.447Z,0.11
2018-03-25T01:56:02.133Z,0.06
2018-03-25T01:57:11.834Z,0.13
2018-03-25T01:58:21.536Z,0.01
2018-03-25T01:59:31.241Z,0.06
2018-03-25T02:00:41.204Z,0.06
2018-03-25T02:01:50.901Z,0.09
2018-03-25T02:03:00.615Z,0.09
2018-03-25T02:04:10.585Z,0.02
2018-03-25T02:05:20.277Z,0.09
2018-03-25T02:06:29.987Z,0.05
2018-03-25T02:07:39.963Z,0.05
2018-03-25T02:08:49.915Z,0.01
2018-03-25T02:09:59.658Z,0
2018-03-25T02:11:09.629Z,0.01
2018-03-25T02:12:19.337Z,-0.02
2018-03-25T02:13:29.026Z,-0.03
2018-03-25T02:14:39.004Z,-0.06
2018-03-25T02:15:48.715Z,-0.02
2018-03-25T02:16:58.155Z,-0.07
2018-03-25T02:18:08.165Z,-0.07
2018-03-25T02:19:18.114Z,-0.13
2018-03-25T02:20:27.809Z,-0.1
2018-03-25T02:21:37.533Z,-0.1
2018-03-25T02:22:47.226Z,0
2018-03-25T02:23:56.961Z,-0.07
2018-03-25T02:25:06.652Z,0.08
2018-03-25T02:26:16.347Z,0.05
2018-03-25T02:27:26.298Z,0.09
2018-03-25T02:28:36.250Z,0.23
2018-03-25T02:29:45.938Z,0.15
2018-03-25T02:30:55.654Z,0.27
2018-03-25T02:32:05.089Z,0.2
2018-03-25T02:33:15.091Z,0.3
2018-03-25T02:34:24.260Z,0.29
2018-03-25T02:35:33.971Z,0.23
2018-03-25T02:36:43.680Z,0.29
2018-03-25T02:37:53.445Z,0.26
2018-03-25T02:39:03.167Z,0.18
2018-03-25T02:40:12.343Z,0.15
2018-03-25T02:41:21.794Z,0.13
2018-03-25T02:42:31.790Z,0.06
2018-03-25T02:43:41.238Z,0.13
2018-03-25T02:44:51.216Z,0.05
2018-03-25T02:46:00.691Z,0.09
2018-03-25T02:47:10.649Z,0.01
2018-03-25T02:48:20.599Z,0.13
2018-03-25T02:49:30.311Z,0.12
2018-03-25T02:50:40.284Z,0.06
2018-03-25T02:51:50.242Z,0.06
2018-03-25T02:52:59.961Z,0.09
2018-03-25T02:54:09.929Z,0.01
2018-03-25T02:55:19.993Z,0
2018-03-25T02:56:29.744Z,0.05
2018-03-25T02:57:39.717Z,0.12
2018-03-25T02:58:49.442Z,0.05
2018-03-25T02:59:59.182Z,0.06
2018-03-25T03:01:09.160Z,0.06
2018-03-25T03:02:19.116Z,0.02
2018-03-25T03:03:29.094Z,-0.05
2018-03-25T03:04:39.097Z,-0.12
2018-03-25T03:05:48.545Z,-0.06
2018-03-25T03:06:58.265Z,-0.18
2018-03-25T03:08:08.246Z,-0.17
2018-03-25T03:09:17.959Z,-0.17
2018-03-25T03:10:27.394Z,-0.17
2018-03-25T03:11:37.351Z,-0.18
2018-03-25T03:12:47.054Z,-0.1
2018-03-25T03:13:57.004Z,-0.18
2018-03-25T03:15:06.978Z,-0.15
2018-03-25T03:16:16.934Z,-0.18
2018-03-25T03:17:26.891Z,-0.26
2018-03-25T03:18:36.591Z,-0.28
2018-03-25T03:19:46.282Z,-0.24
2018-03-25T03:20:56.240Z,-0.24
2018-03-25T03:22:06.213Z,-0.38
2018-03-25T03:23:16.170Z,-0.33
2018-03-25T03:24:26.128Z,-0.3
2018-03-25T03:25:36.085Z,-0.36
2018-03-25T03:26:46.057Z,-0.39
2018-03-25T03:27:55.767Z,-0.41
2018-03-25T03:29:05.726Z,-0.45
2018-03-25T03:30:14.918Z,-0.42
2018-03-25T03:31:24.929Z,-0.54
2018-03-25T03:32:34.907Z,-0.48
2018-03-25T03:33:44.343Z,-0.49
2018-03-25T03:34:54.305Z,-0.45
2018-03-25T03:36:03.741Z,-0.56
2018-03-25T03:37:13.708Z,-0.49
2018-03-25T03:38:23.680Z,-0.51
2018-03-25T03:39:33.391Z,-0.57
2018-03-25T03:40:43.092Z,-0.59
2018-03-25T03:41:52.523Z,-0.56
2018-03-25T03:43:02.224Z,-0.63
2018-03-25T03:44:11.923Z,-0.6
2018-03-25T03:45:21.368Z,-0.6
2018-03-25T03:46:31.070Z,-0.62
2018-03-25T03:47:40.515Z,-0.62
2018-03-25T03:48:50.490Z,-0.56
2018-03-25T03:49:59.927Z,-0.6
2018-03-25T03:51:09.626Z,-0.6
2018-03-25T03:52:19.651Z,-0.62
2018-03-25T03:53:29.617Z,-0.59
2018-03-25T03:54:39.334Z,-0.56
2018-03-25T03:55:49.026Z,-0.62
2018-03-25T03:56:58.978Z,-0.72
2018-03-25T03:58:08.688Z,-0.75
2018-03-25T03:59:18.133Z,-0.72
2018-03-25T04:00:28.099Z,-0.6
2018-03-25T04:01:37.788Z,-0.74
2018-03-25T04:02:46.965Z,-0.66
2018-03-25T04:03:56.674Z,-0.75
2018-03-25T04:05:06.630Z,-0.8
2018-03-25T04:06:16.319Z,-0.78
2018-03-25T04:07:26.051Z,-0.8
2018-03-25T04:08:36.006Z,-0.78
2018-03-25T04:09:45.698Z,-0.77
2018-03-25T04:10:55.660Z,-0.77
2018-03-25T04:12:05.373Z,-0.75
2018-03-25T04:13:15.075Z,-0.75
2018-03-25T04:14:25.080Z,-0.82
2018-03-25T04:15:35.047Z,-0.8
2018-03-25T04:16:44.479Z,-0.85
2018-03-25T04:17:54.432Z,-0.75
2018-03-25T04:19:04.126Z,-0.75
2018-03-25T04:20:13.824Z,-0.75
2018-03-25T04:21:23.527Z,-0.69
2018-03-25T04:22:33.223Z,-0.81
2018-03-25T04:23:42.922Z,-0.78
2018-03-25T04:24:52.613Z,-0.82
2018-03-25T04:26:02.561Z,-0.84
2018-03-25T04:27:11.989Z,-0.81
2018-03-25T04:28:21.699Z,-0.78
2018-03-25T04:29:31.402Z,-0.8
2018-03-25T04:30:41.453Z,-0.72
2018-03-25T04:31:50.893Z,-0.72
2018-03-25T04:33:00.858Z,-0.78
2018-03-25T04:34:10.560Z,-0.81
2018-03-25T04:35:20.260Z,-0.81
2018-03-25T04:36:30.235Z,-0.78
2018-03-25T04:37:39.942Z,-0.77
2018-03-25T04:38:49.911Z,-0.77
2018-03-25T04:39:59.868Z,-0.78
2018-03-25T04:41:09.864Z,-0.8
2018-03-25T04:42:19.818Z,-0.77
2018-03-25T04:43:29.004Z,-0.75
2018-03-25T04:44:38.958Z,-0.8
2018-03-25T04:45:48.930Z,-0.78
2018-03-25T04:46:58.624Z,-0.78
2018-03-25T04:48:08.582Z,-0.78
2018-03-25T04:49:18.541Z,-0.72
2018-03-25T04:50:28.500Z,-0.78
2018-03-25T04:51:38.201Z,-0.75
2018-03-25T04:52:48.151Z,-0.72
2018-03-25T04:53:58.112Z,-0.78
2018-03-25T04:55:07.546Z,-0.78
2018-03-25T04:56:17.517Z,-0.75
2018-03-25T04:57:27.475Z,-0.78
2018-03-25T04:58:37.180Z,-0.85
2018-03-25T04:59:46.618Z,-0.89
2018-03-25T05:00:56.330Z,-0.8
2018-03-25T05:02:06.024Z,-0.85
2018-03-25T05:03:15.733Z,-0.94
2018-03-25T05:04:25.429Z,-0.96
2018-03-25T05:05:35.381Z,-0.93
2018-03-25T05:06:45.094Z,-0.89
2018-03-25T05:07:54.802Z,-0.97
2018-03-25T05:09:04.760Z,-1.03
2018-03-25T05:10:13.676Z,-0.99
2018-03-25T05:11:23.369Z,-1.01
2018-03-25T05:12:32.544Z,-1
2018-03-25T05:13:42.502Z,-1.03
2018-03-25T05:14:52.202Z,-1.01
2018-03-25T05:16:01.660Z,-1.06
2018-03-25T05:17:11.365Z,-0.97
2018-03-25T05:18:21.054Z,-1.09
2018-03-25T05:19:31.021Z,-1.09
2018-03-25T05:20:40.916Z,-1
2018-03-25T05:21:50.353Z,-0.99
2018-03-25T05:23:00.049Z,-0.91
2018-03-25T05:24:09.547Z,-0.89
2018-03-25T05:25:19.512Z,-0.89
2018-03-25T05:26:29.202Z,-0.91
2018-03-25T05:27:38.915Z,-0.91
2018-03-25T05:28:48.619Z,-0.78
2018-03-25T05:29:58.060Z,-0.89
2018-03-25T05:31:07.768Z,-0.85
2018-03-25T05:32:17.218Z,-0.81
2018-03-25T05:33:27.181Z,-0.82
2018-03-25T05:34:37.153Z,-0.77
2018-03-25T05:35:47.110Z,-0.78
2018-03-25T05:36:56.807Z,-0.78
2018-03-25T05:38:05.736Z,-0.8
2018-03-25T05:39:15.442Z,-0.67
2018-03-25T05:40:25.663Z,-0.67
2018-03-25T05:41:35.628Z,-0.66
2018-03-25T05:42:45.595Z,-0.62
2018-03-25T05:43:55.548Z,-0.6
2018-03-25T05:45:04.996Z,-0.53
2018-03-25T05:46:14.429Z,-0.66
2018-03-25T05:47:24.399Z,-0.6
2018-03-25T05:48:34.358Z,-0.63
2018-03-25T05:49:43.556Z,-0.53
2018-03-25T05:50:53.515Z,-0.63
2018-03-25T05:52:03.476Z,-0.67
2018-03-25T05:53:12.914Z,-0.62
2018-03-25T05:54:22.886Z,-0.64
2018-03-25T05:55:32.603Z,-0.67
2018-03-25T05:56:42.043Z,-0.69
2018-03-25T05:57:51.754Z,-0.66
2018-03-25T05:59:01.457Z,-0.69
2018-03-25T06:00:10.891Z,-0.77
2018-03-25T06:01:20.920Z,-0.7
2018-03-25T06:02:30.945Z,-0.7
2018-03-25T06:03:40.907Z,-0.7
2018-03-25T06:04:50.863Z,-0.72
2018-03-25T06:06:00.835Z,-0.74
2018-03-25T06:07:10.678Z,-0.67
2018-03-25T06:08:20.646Z,-0.62
2018-03-25T06:09:30.341Z,-0.56
2018-03-25T06:10:40.556Z,-0.53
2018-03-25T06:11:50.507Z,-0.56
2018-03-25T06:13:00.476Z,-0.56
2018-03-25T06:14:10.452Z,-0.45
2018-03-25T06:15:20.150Z,-0.46
2018-03-25T06:16:29.861Z,-0.35
2018-03-25T06:17:39.564Z,-0.24
2018-03-25T06:18:49.509Z,-0.23
2018-03-25T06:19:59.216Z,-0.18
2018-03-25T06:21:08.951Z,-0.13
2018-03-25T06:22:18.658Z,-0.07
2018-03-25T06:23:28.786Z,-0.03
2018-03-25T06:24:38.484Z,0.08
2018-03-25T06:25:48.506Z,0.01
2018-03-25T06:26:58.216Z,0.13
2018-03-25T06:28:07.921Z,0.18
2018-03-25T06:29:17.635Z,0.19
2018-03-25T06:30:27.334Z,0.2
2018-03-25T06:31:36.773Z,0.31
2018-03-25T06:32:46.483Z,0.3
2018-03-25T06:33:56.454Z,0.36
2018-03-25T06:35:06.421Z,0.34
2018-03-25T06:36:16.147Z,0.36
2018-03-25T06:37:25.851Z,0.39
2018-03-25T06:38:35.851Z,0.36
2018-03-25T06:39:45.560Z,0.4
2018-03-25T06:40:55.267Z,0.47
2018-03-25T06:42:04.706Z,0.4
2018-03-25T06:43:14.416Z,0.48
2018-03-25T06:44:24.113Z,0.45
2018-03-25T06:45:33.811Z,0.49
2018-03-25T06:46:43.775Z,0.51
2018-03-25T06:47:53.730Z,0.59
2018-03-25T06:49:03.688Z,0.47
2018-03-25T06:50:13.423Z,0.63
2018-03-25T06:51:23.390Z,0.74
2018-03-25T06:52:33.356Z,0.68
2018-03-25T06:53:43.330Z,0.78
2018-03-25T06:54:53.289Z,0.82
2018-03-25T06:56:03.266Z,0.84
2018-03-25T06:57:13.254Z,0.92
2018-03-25T06:58:22.704Z,0.99
2018-03-25T06:59:32.657Z,1.12
2018-03-25T07:00:42.348Z,1.03
2018-03-25T07:01:52.039Z,1.13
2018-03-25T07:03:02.111Z,1.18
2018-03-25T07:04:12.068Z,1.18
2018-03-25T07:05:22.030Z,1.22
2018-03-25T07:06:31.514Z,1.3
2018-03-25T07:07:41.221Z,1.32
2018-03-25T07:08:50.926Z,1.38
2018-03-25T07:10:00.107Z,1.38
2018-03-25T07:11:09.831Z,1.43
2018-03-25T07:12:19.785Z,1.46
2018-03-25T07:13:29.748Z,1.56
2018-03-25T07:14:39.198Z,1.5
2018-03-25T07:15:48.699Z,1.61
2018-03-25T07:16:58.363Z,1.63
2018-03-25T07:18:08.075Z,1.79
2018-03-25T07:19:17.779Z,1.84
2018-03-25T07:20:27.775Z,1.81
2018-03-25T07:21:37.549Z,1.97
2018-03-25T07:22:47.279Z,1.98
2018-03-25T07:23:56.970Z,2.01
2018-03-25T07:25:06.410Z,2.07
2018-03-25T07:26:15.861Z,2.14
2018-03-25T07:27:25.844Z,2.21
2018-03-25T07:28:35.024Z,2.25
2018-03-25T07:29:44.201Z,2.23
2018-03-25T07:30:54.163Z,2.3
2018-03-25T07:32:03.607Z,2.33
2018-03-25T07:33:13.321Z,2.39
2018-03-25T07:34:23.022Z,2.51
2018-03-25T07:35:32.718Z,2.5
2018-03-25T07:36:42.430Z,2.46
2018-03-25T07:37:51.867Z,2.57
2018-03-25T07:39:01.568Z,2.68
2018-03-25T07:40:11.526Z,2.75
2018-03-25T07:41:21.484Z,2.79
2018-03-25T07:42:31.487Z,2.9
2018-03-25T07:43:41.266Z,2.91
2018-03-25T07:44:50.989Z,2.97
2018-03-25T07:46:00.437Z,3.01
2018-03-25T07:47:09.877Z,3.11
2018-03-25T07:48:19.578Z,3.11
2018-03-25T07:49:29.543Z,3.15
2018-03-25T07:50:38.987Z,3.11
2018-03-25T07:51:49.010Z,3.21
2018-03-25T07:52:58.707Z,3.27
2018-03-25T07:54:08.671Z,3.33
2018-03-25T07:55:18.368Z,3.43
2018-03-25T07:56:28.335Z,3.46
2018-03-25T07:57:37.530Z,3.5
2018-03-25T07:58:47.556Z,3.52
2018-03-25T07:59:57.521Z,3.53
2018-03-25T08:01:07.504Z,3.52
2018-03-25T08:02:17.229Z,3.61
2018-03-25T08:03:27.189Z,3.73
2018-03-25T08:04:36.380Z,3.7
2018-03-25T08:05:46.075Z,3.91
2018-03-25T08:06:55.539Z,3.92
2018-03-25T08:08:05.247Z,3.82
2018-03-25T08:09:15.303Z,3.92
2018-03-25T08:10:24.954Z,3.96
2018-03-25T08:11:34.653Z,4
2018-03-25T08:12:44.616Z,4
2018-03-25T08:13:54.317Z,4.03
2018-03-25T08:15:04.280Z,4.13
2018-03-25T08:16:14.332Z,4.22
2018-03-25T08:17:23.749Z,4.2
2018-03-25T08:18:33.716Z,4.32
2018-03-25T08:19:43.424Z,4.31
2018-03-25T08:20:53.132Z,4.38
2018-03-25T08:22:02.843Z,4.57
2018-03-25T08:23:12.291Z,4.57
2018-03-25T08:24:21.739Z,4.67
2018-03-25T08:25:31.750Z,4.83
2018-03-25T08:26:41.743Z,5.07
2018-03-25T08:27:51.719Z,5.2
2018-03-25T08:29:01.512Z,5.4
2018-03-25T08:30:10.963Z,5.56
2018-03-25T08:31:20.688Z,5.64
2018-03-25T08:32:30.140Z,5.79
2018-03-25T08:33:39.598Z,6.01
2018-03-25T08:34:49.050Z,6.15
2018-03-25T08:35:59.022Z,6.31
2018-03-25T08:37:08.997Z,6.44
2018-03-25T08:38:18.985Z,6.59
2018-03-25T08:39:28.681Z,6.57
2018-03-25T08:40:38.392Z,6.72
2018-03-25T08:41:47.839Z,6.85
2018-03-25T08:42:57.832Z,6.75
2018-03-25T08:44:07.555Z,6.8
2018-03-25T08:45:17.277Z,6.85
2018-03-25T08:46:27.258Z,6.83
2018-03-25T08:47:36.790Z,6.96
2018-03-25T08:48:46.755Z,6.85
2018-03-25T08:49:56.489Z,6.97
2018-03-25T08:51:05.674Z,6.97
2018-03-25T08:52:15.393Z,7.04
2018-03-25T08:53:25.105Z,7.15
2018-03-25T08:54:34.030Z,7.22
2018-03-25T08:55:44.143Z,7.19
2018-03-25T08:56:53.597Z,7.15
2018-03-25T08:58:03.570Z,7.19
2018-03-25T08:59:13.600Z,7.03
2018-03-25T09:00:23.315Z,6.95
2018-03-25T09:01:32.788Z,6.96
2018-03-25T09:02:42.256Z,7.03
2018-03-25T09:03:52.245Z,7.22
2018-03-25T09:05:01.863Z,7.33
2018-03-25T09:06:11.571Z,7.58
2018-03-25T09:07:21.593Z,7.75
2018-03-25T09:08:31.311Z,7.91
2018-03-25T09:09:41.288Z,7.87
2018-03-25T09:10:51.012Z,7.83
2018-03-25T09:12:00.719Z,7.59
2018-03-25T09:13:10.462Z,7.66
2018-03-25T09:14:20.171Z,7.61
2018-03-25T09:15:29.637Z,7.46
2018-03-25T09:16:39.632Z,7.48
2018-03-25T09:17:49.599Z,7.56
2018-03-25T09:18:58.804Z,7.66
2018-03-25T09:20:08.517Z,7.81
2018-03-25T09:21:18.494Z,7.91
2018-03-25T09:22:28.209Z,7.98
2018-03-25T09:23:37.929Z,8.08
2018-03-25T09:24:47.640Z,8.24
2018-03-25T09:25:57.616Z,8.32
2018-03-25T09:27:07.589Z,8.66
2018-03-25T09:28:17.559Z,8.99
2018-03-25T09:29:27.530Z,9.37
2018-03-25T09:30:37.497Z,9.59
2018-03-25T09:31:47.220Z,9.72
2018-03-25T09:32:57.185Z,9.76
2018-03-25T09:34:07.160Z,9.7
2018-03-25T09:35:16.863Z,9.91
2018-03-25T09:36:26.887Z,10.03
2018-03-25T09:37:36.882Z,10.49
2018-03-25T09:38:46.889Z,10.23
2018-03-25T09:39:56.876Z,10.15
2018-03-25T09:41:06.867Z,10.17
2018-03-25T09:42:16.898Z,10.25
2018-03-25T09:43:26.895Z,10.34
2018-03-25T09:44:36.607Z,10.58
2018-03-25T09:45:46.631Z,10.39
2018-03-25T09:46:56.725Z,10.79
2018-03-25T09:48:06.793Z,10.89
2018-03-25T09:49:15.981Z,11.1
2018-03-25T09:50:25.187Z,11.02
2018-03-25T09:51:34.652Z,10.95
2018-03-25T09:52:44.775Z,10.72
2018-03-25T09:53:54.756Z,10.87
2018-03-25T09:55:04.224Z,11.1
2018-03-25T09:56:14.208Z,11.05
2018-03-25T09:57:24.009Z,11.26
2018-03-25T09:58:34.099Z,11.37
2018-03-25T09:59:43.956Z,11.8
2018-03-25T10:00:53.675Z,11.55
2018-03-25T10:02:03.389Z,11.23
2018-03-25T10:03:13.381Z,11.2
2018-03-25T10:04:22.844Z,11.2
2018-03-25T10:05:32.593Z,11.23
2018-03-25T10:06:42.041Z,10.87
2018-03-25T10:07:51.809Z,10.64
2018-03-25T10:09:01.806Z,10.71
2018-03-25T10:10:11.544Z,10.62
2018-03-25T10:11:21.014Z,10.43
2018-03-25T10:12:30.818Z,10.48
2018-03-25T10:13:40.533Z,10.51
2018-03-25T10:14:49.731Z,10.57
2018-03-25T10:15:59.472Z,10.86
2018-03-25T10:17:09.189Z,11.2
2018-03-25T10:18:19.157Z,11.65
2018-03-25T10:19:29.144Z,11.95
2018-03-25T10:20:39.114Z,11.95
2018-03-25T10:21:49.111Z,11.77
2018-03-25T10:22:58.576Z,11.25
2018-03-25T10:24:08.560Z,11.25
2018-03-25T10:25:18.023Z,11.68
2018-03-25T10:26:28.000Z,12.2
2018-03-25T10:27:37.468Z,12.21
2018-03-25T10:28:47.449Z,12.63
2018-03-25T10:29:57.444Z,12.73
2018-03-25T10:31:07.173Z,12.48
2018-03-25T10:32:17.150Z,12.11
2018-03-25T10:33:26.901Z,12
2018-03-25T10:34:36.100Z,12
2018-03-25T10:35:45.810Z,12.1
2018-03-25T10:36:55.285Z,12.07
2018-03-25T10:38:05.005Z,11.91
2018-03-25T10:39:14.474Z,11.89
2018-03-25T10:40:24.455Z,11.65
2018-03-25T10:41:34.187Z,11.52
2018-03-25T10:42:44.215Z,11.49
2018-03-25T10:43:54.189Z,11.68
2018-03-25T10:45:04.227Z,11.91
2018-03-25T10:46:13.948Z,12.14
2018-03-25T10:47:23.659Z,12.12
2018-03-25T10:48:33.114Z,11.96
2018-03-25T10:49:42.971Z,11.63
2018-03-25T10:50:52.950Z,11.23
2018-03-25T10:52:02.922Z,11.07
2018-03-25T10:53:12.655Z,10.94
2018-03-25T10:54:22.624Z,11.13
2018-03-25T10:55:32.340Z,11.53
2018-03-25T10:56:41.533Z,12.02
2018-03-25T10:57:50.993Z,11.96
2018-03-25T10:59:00.222Z,12.08
2018-03-25T11:00:09.947Z,12.28
2018-03-25T11:01:19.693Z,12.03
2018-03-25T11:02:29.412Z,11.41
2018-03-25T11:03:38.876Z,11.35
2018-03-25T11:04:49.014Z,11.55
2018-03-25T11:05:58.727Z,11.91
2018-03-25T11:07:07.927Z,12.18
2018-03-25T11:08:17.404Z,12.39
2018-03-25T11:09:27.123Z,12.94
2018-03-25T11:10:36.330Z,13.12
2018-03-25T11:11:46.321Z,13.05
2018-03-25T11:12:55.512Z,12.81
2018-03-25T11:14:05.248Z,12.75
2018-03-25T11:15:14.976Z,12.43
2018-03-25T11:16:24.691Z,12.2
2018-03-25T11:17:34.438Z,12.21
2018-03-25T11:18:43.906Z,12.72
2018-03-25T11:19:53.369Z,13.13
2018-03-25T11:21:03.093Z,13.39
2018-03-25T11:22:13.093Z,13.28
2018-03-25T11:23:23.077Z,13.08
2018-03-25T11:24:33.062Z,12.8
2018-03-25T11:25:43.206Z,12.39
2018-03-25T11:26:53.183Z,12.44
2018-03-25T11:28:03.164Z,12.61
2018-03-25T11:29:13.142Z,12.44
2018-03-25T11:30:22.889Z,12.78
2018-03-25T11:31:32.864Z,12.93
2018-03-25T11:32:42.580Z,13.11
2018-03-25T11:33:52.571Z,13.08
2018-03-25T11:35:02.309Z,12.94
2018-03-25T11:36:12.042Z,12.87
2018-03-25T11:37:22.022Z,12.94
2018-03-25T11:38:32.035Z,12.87
2018-03-25T11:39:41.758Z,12.72
2018-03-25T11:40:51.504Z,12.58
2018-03-25T11:42:01.238Z,12.75
2018-03-25T11:43:10.958Z,12.88
2018-03-25T11:44:20.685Z,12.91
2018-03-25T11:45:30.147Z,12.94
2018-03-25T11:46:39.872Z,12.7
2018-03-25T11:47:49.341Z,12.43
2018-03-25T11:48:59.329Z,12.29
2018-03-25T11:50:09.311Z,12.35
2018-03-25T11:51:19.296Z,12.21
2018-03-25T11:52:28.753Z,12.14
2018-03-25T11:53:37.953Z,12.14
2018-03-25T11:54:47.954Z,12.44
2018-03-25T11:55:57.687Z,12.53
2018-03-25T11:57:07.418Z,12.88
2018-03-25T11:58:17.148Z,13.11
2018-03-25T11:59:26.867Z,13.2
2018-03-25T12:00:36.845Z,13.61
2018-03-25T12:01:46.306Z,13.94
2018-03-25T12:02:55.503Z,14.13
2018-03-25T12:04:05.238Z,14.3
2018-03-25T12:05:14.953Z,14.22
2018-03-25T12:06:24.665Z,14.36
2018-03-25T12:07:34.390Z,14.36
2018-03-25T12:08:44.141Z,14.26
2018-03-25T12:09:53.859Z,14.03
2018-03-25T12:11:03.581Z,13.95
2018-03-25T12:12:13.566Z,13.55
2018-03-25T12:13:23.292Z,13.7
2018-03-25T12:14:33.277Z,13.79
2018-03-25T12:15:42.745Z,13.42
2018-03-25T12:16:52.194Z,13.21
2018-03-25T12:18:02.179Z,13.21
2018-03-25T12:19:11.890Z,13.16
2018-03-25T12:20:21.620Z,13.43
2018-03-25T12:21:31.400Z,14
2018-03-25T12:22:40.848Z,14.25
2018-03-25T12:23:50.577Z,14.48
2018-03-25T12:25:00.541Z,14.9
2018-03-25T12:26:10.537Z,14.77
2018-03-25T12:27:20.520Z,14.66
2018-03-25T12:28:30.490Z,14.58
2018-03-25T12:29:40.483Z,14.2
2018-03-25T12:30:49.951Z,13.61
2018-03-25T12:31:59.938Z,13.5
2018-03-25T12:33:10.199Z,13.46
2018-03-25T12:34:20.227Z,13.47
2018-03-25T12:35:29.957Z,13.3
2018-03-25T12:36:39.940Z,13.31
2018-03-25T12:37:49.932Z,13.23
2018-03-25T12:38:59.652Z,13.24
2018-03-25T12:40:09.376Z,13.33
2018-03-25T12:41:19.106Z,13.39
2018-03-25T12:42:29.079Z,13.26
2018-03-25T12:43:38.808Z,13.42
2018-03-25T12:44:48.688Z,13.28
2018-03-25T12:45:58.416Z,13.21
2018-03-25T12:47:08.144Z,13.61
2018-03-25T12:48:18.222Z,14.19
2018-03-25T12:49:28.204Z,14.85
2018-03-25T12:50:38.176Z,15.33
2018-03-25T12:51:48.158Z,15.43
2018-03-25T12:52:58.141Z,15.51
2018-03-25T12:54:08.147Z,15.7
2018-03-25T12:55:17.356Z,16.12
2018-03-25T12:56:27.350Z,16.02
2018-03-25T12:57:37.315Z,15.36
2018-03-25T12:58:47.039Z,14.96
2018-03-25T12:59:56.753Z,15
2018-03-25T13:01:06.740Z,15.19
2018-03-25T13:02:16.731Z,15.11
2018-03-25T13:03:26.468Z,14.82
2018-03-25T13:04:36.486Z,14.22
2018-03-25T13:05:46.209Z,13.75
2018-03-25T13:06:55.684Z,13.62
2018-03-25T13:08:05.422Z,13.98
2018-03-25T13:09:14.869Z,14.07
2018-03-25T13:10:24.600Z,14.25
2018-03-25T13:11:34.339Z,14.44
2018-03-25T13:12:44.084Z,14.67
2018-03-25T13:13:53.801Z,14.67
2018-03-25T13:15:03.821Z,14.63
2018-03-25T13:16:13.798Z,14.96
2018-03-25T13:17:23.524Z,14.92
2018-03-25T13:18:33.506Z,14.89
2018-03-25T13:19:43.242Z,14.78
2018-03-25T13:20:53.212Z,14.53
2018-03-25T13:22:02.927Z,14.31
2018-03-25T13:23:12.905Z,14.86
2018-03-25T13:24:22.622Z,14.74
2018-03-25T13:25:32.629Z,14.85
2018-03-25T13:26:42.367Z,14.86
2018-03-25T13:27:51.833Z,14.53
2018-03-25T13:29:01.941Z,14.62
2018-03-25T13:30:11.921Z,15.11
2018-03-25T13:31:21.662Z,15.41
2018-03-25T13:32:31.640Z,15.17
2018-03-25T13:33:41.630Z,15.27
2018-03-25T13:34:51.404Z,15.23
2018-03-25T13:36:00.859Z,15.04
2018-03-25T13:37:10.845Z,14.62
2018-03-25T13:38:20.582Z,14.52
2018-03-25T13:39:30.037Z,14.53
2018-03-25T13:40:39.507Z,14.44
2018-03-25T13:41:48.963Z,14.9
2018-03-25T13:42:58.425Z,15.41
2018-03-25T13:44:07.628Z,15.23
2018-03-25T13:45:16.825Z,15.05
2018-03-25T13:46:26.553Z,14.85
2018-03-25T13:47:36.523Z,14.33
2018-03-25T13:48:46.237Z,14.03
2018-03-25T13:49:56.228Z,13.91
2018-03-25T13:51:05.970Z,13.94
2018-03-25T13:52:15.696Z,14.05
2018-03-25T13:53:25.400Z,14.01
2018-03-25T13:54:35.411Z,14.19
2018-03-25T13:55:44.891Z,14.11
2018-03-25T13:56:54.870Z,14.03
2018-03-25T13:58:04.333Z,13.87
2018-03-25T13:59:14.057Z,13.91
2018-03-25T14:00:24.055Z,14.23
2018-03-25T14:01:33.518Z,14.43
2018-03-25T14:02:43.499Z,14.31
2018-03-25T14:03:53.220Z,14.36
2018-03-25T14:05:02.419Z,14.53
2018-03-25T14:06:11.874Z,14.85
2018-03-25T14:07:21.860Z,14.87
2018-03-25T14:08:31.587Z,15.07
2018-03-25T14:09:41.316Z,14.82
2018-03-25T14:10:51.047Z,14.55
2018-03-25T14:12:00.780Z,14.49
2018-03-25T14:13:10.518Z,14.63
2018-03-25T14:14:20.250Z,14.63
2018-03-25T14:15:30.233Z,15
2018-03-25T14:16:39.700Z,15.37
2018-03-25T14:17:49.165Z,15.22
2018-03-25T14:18:58.882Z,15.41
2018-03-25T14:20:08.865Z,15.76
2018-03-25T14:21:18.590Z,16.28
2018-03-25T14:22:28.560Z,16.8
2018-03-25T14:23:38.034Z,17.1
2018-03-25T14:24:48.035Z,17.47
2018-03-25T14:25:57.744Z,17.31
2018-03-25T14:27:07.479Z,17.65
2018-03-25T14:28:17.468Z,17.65
2018-03-25T14:29:27.183Z,18.05
2018-03-25T14:30:36.644Z,18.49
2018-03-25T14:31:46.637Z,18.74
2018-03-25T14:32:56.608Z,18.89
2018-03-25T14:34:06.605Z,19.04
2018-03-25T14:35:16.337Z,19.29
2018-03-25T14:36:26.322Z,19.22
2018-03-25T14:37:36.063Z,19.11
2018-03-25T14:38:45.821Z,18.49
2018-03-25T14:39:55.289Z,17.72
2018-03-25T14:41:05.016Z,16.49
2018-03-25T14:42:14.737Z,15.59
2018-03-25T14:43:24.204Z,14.9
2018-03-25T14:44:33.924Z,14.3
2018-03-25T14:45:43.641Z,14.15
2018-03-25T14:46:53.379Z,14.19
2018-03-25T14:48:03.099Z,14.43
2018-03-25T14:49:13.082Z,14.52
2018-03-25T14:50:22.560Z,14.77
2018-03-25T14:51:32.305Z,14.99
2018-03-25T14:52:42.270Z,15.26
2018-03-25T14:53:52.237Z,15.57
2018-03-25T14:55:01.707Z,15.69
2018-03-25T14:56:11.685Z,15.75
2018-03-25T14:57:21.413Z,15.66
2018-03-25T14:58:31.140Z,15.5
2018-03-25T14:59:41.122Z,15.37
2018-03-25T15:00:50.600Z,15.27
2018-03-25T15:02:00.363Z,14.87
2018-03-25T15:03:10.163Z,14.34
2018-03-25T15:04:20.139Z,14.04
2018-03-25T15:05:29.857Z,13.58
2018-03-25T15:06:39.380Z,13.19
2018-03-25T15:07:49.375Z,13.05
2018-03-25T15:08:58.623Z,12.94
2018-03-25T15:10:08.629Z,12.98
2018-03-25T15:11:18.345Z,12.88
2018-03-25T15:12:28.208Z,12.87
2018-03-25T15:13:38.295Z,12.95
2018-03-25T15:14:48.420Z,13.11